sensor_id;sensor_type;location;lat;lon;timestamp;temperature;humidity
54846;DHT22;53889;50.084;8.646;2023-11-21T00:01:55;10.00;99.90
54846;DHT22;53889;50.084;8.646;2023-11-21T00:04:22;10.00;99.90
54846;DHT22;53889;50.084;8.646;2023-11-21T00:06:50;10.00;99.90
54846;DHT22;53889;50.084;8.646;2023-11-21T00:09:17;10.00;99.90
54846;DHT22;53889;50.084;8.646;2023-11-21T00:11:45;10.00;99.90
54846;DHT22;53889;50.084;8.646;2023-11-21T00:14:12;10.80;99.90
54846;DHT22;53889;50.084;8.646;2023-11-21T00:16:40;10.00;99.90
54846;DHT22;53889;50.084;8.646;2023-11-21T00:19:07;10.00;99.90
54846;DHT22;53889;50.084;8.646;2023-11-21T00:21:33;10.00;99.90
54846;DHT22;53889;50.084;8.646;2023-11-21T00:24:01;10.00;99.90
54846;DHT22;53889;50.084;8.646;2023-11-21T00:26:28;10.00;99.90
54846;DHT22;53889;50.084;8.646;2023-11-21T00:29:01;10.00;99.90
54846;DHT22;53889;50.084;8.646;2023-11-21T00:31:27;10.10;99.90
54846;DHT22;53889;50.084;8.646;2023-11-21T00:33:55;10.00;99.90
54846;DHT22;53889;50.084;8.646;2023-11-21T00:36:21;10.00;99.90
54846;DHT22;53889;50.084;8.646;2023-11-21T00:38:48;10.10;99.90
54846;DHT22;53889;50.084;8.646;2023-11-21T00:41:16;10.00;99.90
54846;DHT22;53889;50.084;8.646;2023-11-21T00:43:43;10.00;99.90
54846;DHT22;53889;50.084;8.646;2023-11-21T00:46:10;10.00;99.90
54846;DHT22;53889;50.084;8.646;2023-11-21T00:48:36;10.10;99.90
54846;DHT22;53889;50.084;8.646;2023-11-21T00:51:03;10.00;99.90
54846;DHT22;53889;50.084;8.646;2023-11-21T00:53:31;10.00;99.90
54846;DHT22;53889;50.084;8.646;2023-11-21T00:55:58;9.90;99.90
54846;DHT22;53889;50.084;8.646;2023-11-21T00:58:26;9.90;99.90
54846;DHT22;53889;50.084;8.646;2023-11-21T01:00:52;9.80;99.90
54846;DHT22;53889;50.084;8.646;2023-11-21T01:03:19;9.80;99.90
54846;DHT22;53889;50.084;8.646;2023-11-21T01:05:46;9.90;99.90
54846;DHT22;53889;50.084;8.646;2023-11-21T01:08:15;9.90;99.90
54846;DHT22;53889;50.084;8.646;2023-11-21T01:10:42;9.90;99.90
54846;DHT22;53889;50.084;8.646;2023-11-21T01:13:09;9.90;99.90
54846;DHT22;53889;50.084;8.646;2023-11-21T01:15:38;9.90;99.90
54846;DHT22;53889;50.084;8.646;2023-11-21T01:18:05;9.90;99.90
54846;DHT22;53889;50.084;8.646;2023-11-21T01:20:31;9.90;99.90
54846;DHT22;53889;50.084;8.646;2023-11-21T01:22:58;9.90;99.90
54846;DHT22;53889;50.084;8.646;2023-11-21T01:25:27;9.90;99.90
54846;DHT22;53889;50.084;8.646;2023-11-21T01:27:53;9.90;99.90
54846;DHT22;53889;50.084;8.646;2023-11-21T01:30:20;9.90;99.90
54846;DHT22;53889;50.084;8.646;2023-11-21T01:32:48;9.90;99.90
54846;DHT22;53889;50.084;8.646;2023-11-21T01:35:16;9.80;99.90
54846;DHT22;53889;50.084;8.646;2023-11-21T01:37:42;9.90;99.90
54846;DHT22;53889;50.084;8.646;2023-11-21T01:40:10;9.90;99.90
54846;DHT22;53889;50.084;8.646;2023-11-21T01:42:39;9.90;99.90
54846;DHT22;53889;50.084;8.646;2023-11-21T01:45:07;9.80;99.90
54846;DHT22;53889;50.084;8.646;2023-11-21T01:47:35;9.80;99.90
54846;DHT22;53889;50.084;8.646;2023-11-21T01:50:06;9.80;99.90
54846;DHT22;53889;50.084;8.646;2023-11-21T01:52:34;9.80;99.90
54846;DHT22;53889;50.084;8.646;2023-11-21T01:55:02;9.90;99.90
54846;DHT22;53889;50.084;8.646;2023-11-21T01:57:30;9.90;99.90
54846;DHT22;53889;50.084;8.646;2023-11-21T01:59:58;9.90;99.90
54846;DHT22;53889;50.084;8.646;2023-11-21T02:02:38;10.00;99.90
54846;DHT22;53889;50.084;8.646;2023-11-21T02:05:07;9.90;99.90
54846;DHT22;53889;50.084;8.646;2023-11-21T02:07:34;9.90;99.90
54846;DHT22;53889;50.084;8.646;2023-11-21T02:10:01;10.00;99.90
54846;DHT22;53889;50.084;8.646;2023-11-21T02:12:30;10.00;99.90
54846;DHT22;53889;50.084;8.646;2023-11-21T02:14:56;10.00;99.90
54846;DHT22;53889;50.084;8.646;2023-11-21T02:17:23;10.00;99.90
54846;DHT22;53889;50.084;8.646;2023-11-21T02:19:50;9.90;99.90
54846;DHT22;53889;50.084;8.646;2023-11-21T02:22:19;9.90;99.90
54846;DHT22;53889;50.084;8.646;2023-11-21T02:24:47;10.00;99.90
54846;DHT22;53889;50.084;8.646;2023-11-21T02:27:14;10.00;99.90
54846;DHT22;53889;50.084;8.646;2023-11-21T02:29:46;9.90;99.90
54846;DHT22;53889;50.084;8.646;2023-11-21T02:32:13;9.90;99.90
54846;DHT22;53889;50.084;8.646;2023-11-21T02:34:40;9.80;99.90
54846;DHT22;53889;50.084;8.646;2023-11-21T02:37:06;9.80;99.90
54846;DHT22;53889;50.084;8.646;2023-11-21T02:39:33;9.80;99.90
54846;DHT22;53889;50.084;8.646;2023-11-21T02:42:01;9.80;99.90
54846;DHT22;53889;50.084;8.646;2023-11-21T02:44:28;9.80;99.90
54846;DHT22;53889;50.084;8.646;2023-11-21T02:46:54;9.70;99.90
54846;DHT22;53889;50.084;8.646;2023-11-21T02:49:23;9.70;99.90
54846;DHT22;53889;50.084;8.646;2023-11-21T02:51:53;9.80;99.90
54846;DHT22;53889;50.084;8.646;2023-11-21T02:54:21;9.80;99.90
54846;DHT22;53889;50.084;8.646;2023-11-21T02:56:48;9.80;99.90
54846;DHT22;53889;50.084;8.646;2023-11-21T02:59:17;9.80;99.90
54846;DHT22;53889;50.084;8.646;2023-11-21T03:01:45;9.80;99.90
54846;DHT22;53889;50.084;8.646;2023-11-21T03:06:43;9.80;99.90
54846;DHT22;53889;50.084;8.646;2023-11-21T03:09:09;9.80;99.90
54846;DHT22;53889;50.084;8.646;2023-11-21T03:11:37;9.80;99.90
54846;DHT22;53889;50.084;8.646;2023-11-21T03:14:05;9.80;99.90
54846;DHT22;53889;50.084;8.646;2023-11-21T03:16:33;9.70;99.90
54846;DHT22;53889;50.084;8.646;2023-11-21T03:19:00;9.70;99.90
54846;DHT22;53889;50.084;8.646;2023-11-21T03:21:27;9.70;99.90
54846;DHT22;53889;50.084;8.646;2023-11-21T03:23:54;9.70;99.90
54846;DHT22;53889;50.084;8.646;2023-11-21T03:26:21;9.70;99.90
54846;DHT22;53889;50.084;8.646;2023-11-21T03:28:48;9.70;99.90
54846;DHT22;53889;50.084;8.646;2023-11-21T03:31:15;9.70;99.90
54846;DHT22;53889;50.084;8.646;2023-11-21T03:33:44;9.70;99.90
54846;DHT22;53889;50.084;8.646;2023-11-21T03:36:11;9.60;99.90
54846;DHT22;53889;50.084;8.646;2023-11-21T03:38:38;9.70;99.90
54846;DHT22;53889;50.084;8.646;2023-11-21T03:41:05;9.70;99.90
54846;DHT22;53889;50.084;8.646;2023-11-21T03:43:32;9.70;99.90
54846;DHT22;53889;50.084;8.646;2023-11-21T03:45:59;9.70;99.90
54846;DHT22;53889;50.084;8.646;2023-11-21T03:48:25;9.70;99.90
54846;DHT22;53889;50.084;8.646;2023-11-21T03:50:53;9.70;99.90
54846;DHT22;53889;50.084;8.646;2023-11-21T03:53:20;9.70;99.90
54846;DHT22;53889;50.084;8.646;2023-11-21T03:55:47;9.80;99.90
54846;DHT22;53889;50.084;8.646;2023-11-21T03:58:14;9.80;99.90
54846;DHT22;53889;50.084;8.646;2023-11-21T04:00:41;9.80;99.90
54846;DHT22;53889;50.084;8.646;2023-11-21T04:03:08;9.70;99.90
54846;DHT22;53889;50.084;8.646;2023-11-21T04:05:34;9.80;99.90
54846;DHT22;53889;50.084;8.646;2023-11-21T04:08:03;9.80;99.90
54846;DHT22;53889;50.084;8.646;2023-11-21T04:10:30;9.80;99.90
54846;DHT22;53889;50.084;8.646;2023-11-21T04:13:00;9.70;99.90
54846;DHT22;53889;50.084;8.646;2023-11-21T04:15:28;9.70;99.90
54846;DHT22;53889;50.084;8.646;2023-11-21T04:17:54;9.70;99.90
54846;DHT22;53889;50.084;8.646;2023-11-21T04:20:22;9.80;99.90
54846;DHT22;53889;50.084;8.646;2023-11-21T04:22:49;9.70;99.90
54846;DHT22;53889;50.084;8.646;2023-11-21T04:25:17;9.60;99.90
54846;DHT22;53889;50.084;8.646;2023-11-21T04:27:44;9.60;99.90
54846;DHT22;53889;50.084;8.646;2023-11-21T04:30:12;9.60;99.90
54846;DHT22;53889;50.084;8.646;2023-11-21T04:32:39;9.60;99.90
54846;DHT22;53889;50.084;8.646;2023-11-21T04:35:08;9.70;99.90
54846;DHT22;53889;50.084;8.646;2023-11-21T04:37:35;9.60;99.90
54846;DHT22;53889;50.084;8.646;2023-11-21T04:40:01;9.70;99.90
54846;DHT22;53889;50.084;8.646;2023-11-21T04:42:34;9.70;99.90
54846;DHT22;53889;50.084;8.646;2023-11-21T04:45:00;9.60;99.90
54846;DHT22;53889;50.084;8.646;2023-11-21T04:47:30;9.70;99.90
54846;DHT22;53889;50.084;8.646;2023-11-21T04:49:57;9.70;99.90
54846;DHT22;53889;50.084;8.646;2023-11-21T04:52:24;9.70;99.90
54846;DHT22;53889;50.084;8.646;2023-11-21T04:54:50;9.70;99.90
54846;DHT22;53889;50.084;8.646;2023-11-21T04:57:19;9.70;99.90
54846;DHT22;53889;50.084;8.646;2023-11-21T04:59:48;9.70;99.90
54846;DHT22;53889;50.084;8.646;2023-11-21T05:02:16;9.70;99.90
54846;DHT22;53889;50.084;8.646;2023-11-21T05:04:44;9.70;99.90
54846;DHT22;53889;50.084;8.646;2023-11-21T05:07:10;9.70;99.90
54846;DHT22;53889;50.084;8.646;2023-11-21T05:09:41;9.70;99.90
54846;DHT22;53889;50.084;8.646;2023-11-21T05:12:09;9.70;99.90
54846;DHT22;53889;50.084;8.646;2023-11-21T05:14:37;9.70;99.90
54846;DHT22;53889;50.084;8.646;2023-11-21T05:17:05;9.70;99.90
54846;DHT22;53889;50.084;8.646;2023-11-21T05:19:33;9.70;99.90
54846;DHT22;53889;50.084;8.646;2023-11-21T05:22:00;9.70;99.90
54846;DHT22;53889;50.084;8.646;2023-11-21T05:24:29;9.70;99.90
54846;DHT22;53889;50.084;8.646;2023-11-21T05:26:55;9.80;99.90
54846;DHT22;53889;50.084;8.646;2023-11-21T05:29:23;9.80;99.90
54846;DHT22;53889;50.084;8.646;2023-11-21T05:31:51;9.80;99.90
54846;DHT22;53889;50.084;8.646;2023-11-21T05:34:19;9.80;99.90
54846;DHT22;53889;50.084;8.646;2023-11-21T05:36:49;9.80;99.90
54846;DHT22;53889;50.084;8.646;2023-11-21T05:39:16;9.70;99.90
54846;DHT22;53889;50.084;8.646;2023-11-21T05:41:44;9.70;99.90
54846;DHT22;53889;50.084;8.646;2023-11-21T05:44:10;9.60;99.90
54846;DHT22;53889;50.084;8.646;2023-11-21T05:46:40;9.60;99.90
54846;DHT22;53889;50.084;8.646;2023-11-21T05:49:08;9.60;99.90
54846;DHT22;53889;50.084;8.646;2023-11-21T05:51:36;9.60;99.90
54846;DHT22;53889;50.084;8.646;2023-11-21T05:54:03;9.70;99.90
54846;DHT22;53889;50.084;8.646;2023-11-21T05:56:30;9.70;99.90
54846;DHT22;53889;50.084;8.646;2023-11-21T05:58:57;9.70;99.90
54846;DHT22;53889;50.084;8.646;2023-11-21T06:01:24;9.70;99.90
54846;DHT22;53889;50.084;8.646;2023-11-21T06:03:53;10.00;99.90
54846;DHT22;53889;50.084;8.646;2023-11-21T06:06:20;9.60;99.90
54846;DHT22;53889;50.084;8.646;2023-11-21T06:08:49;9.60;99.90
54846;DHT22;53889;50.084;8.646;2023-11-21T06:11:15;9.80;99.90
54846;DHT22;53889;50.084;8.646;2023-11-21T06:13:43;9.80;99.90
54846;DHT22;53889;50.084;8.646;2023-11-21T06:16:09;9.80;99.90
54846;DHT22;53889;50.084;8.646;2023-11-21T06:18:38;11.20;99.90
54846;DHT22;53889;50.084;8.646;2023-11-21T06:21:06;9.80;99.90
54846;DHT22;53889;50.084;8.646;2023-11-21T06:23:36;9.90;99.90
54846;DHT22;53889;50.084;8.646;2023-11-21T06:26:04;9.80;99.90
54846;DHT22;53889;50.084;8.646;2023-11-21T06:28:31;9.70;99.90
54846;DHT22;53889;50.084;8.646;2023-11-21T06:30:58;9.70;99.90
54846;DHT22;53889;50.084;8.646;2023-11-21T06:33:30;9.70;99.90
54846;DHT22;53889;50.084;8.646;2023-11-21T06:35:57;9.70;99.90
54846;DHT22;53889;50.084;8.646;2023-11-21T06:38:23;9.70;99.90
54846;DHT22;53889;50.084;8.646;2023-11-21T06:40:53;9.70;99.90
54846;DHT22;53889;50.084;8.646;2023-11-21T06:43:22;9.60;99.90
54846;DHT22;53889;50.084;8.646;2023-11-21T06:45:49;9.60;99.90
54846;DHT22;53889;50.084;8.646;2023-11-21T06:48:15;9.50;99.90
54846;DHT22;53889;50.084;8.646;2023-11-21T06:53:09;9.50;99.90
54846;DHT22;53889;50.084;8.646;2023-11-21T06:55:36;9.50;99.90
54846;DHT22;53889;50.084;8.646;2023-11-21T06:58:03;9.50;99.90
54846;DHT22;53889;50.084;8.646;2023-11-21T07:00:31;9.50;99.90
54846;DHT22;53889;50.084;8.646;2023-11-21T07:02:59;9.50;99.90
54846;DHT22;53889;50.084;8.646;2023-11-21T07:05:26;10.90;99.90
54846;DHT22;53889;50.084;8.646;2023-11-21T07:07:52;9.50;99.90
54846;DHT22;53889;50.084;8.646;2023-11-21T07:10:19;9.50;99.90
54846;DHT22;53889;50.084;8.646;2023-11-21T07:12:47;9.50;99.90
54846;DHT22;53889;50.084;8.646;2023-11-21T07:15:13;9.60;99.90
54846;DHT22;53889;50.084;8.646;2023-11-21T07:17:41;9.60;99.90
54846;DHT22;53889;50.084;8.646;2023-11-21T07:20:10;9.60;99.90
54846;DHT22;53889;50.084;8.646;2023-11-21T07:22:37;9.50;99.90
54846;DHT22;53889;50.084;8.646;2023-11-21T07:25:04;9.50;99.90
54846;DHT22;53889;50.084;8.646;2023-11-21T07:27:32;9.60;99.90
54846;DHT22;53889;50.084;8.646;2023-11-21T07:30:01;9.60;99.90
54846;DHT22;53889;50.084;8.646;2023-11-21T07:34:58;9.70;99.90
54846;DHT22;53889;50.084;8.646;2023-11-21T07:37:26;9.70;99.90
54846;DHT22;53889;50.084;8.646;2023-11-21T07:39:54;9.70;99.90
54846;DHT22;53889;50.084;8.646;2023-11-21T07:42:22;9.80;99.90
54846;DHT22;53889;50.084;8.646;2023-11-21T07:44:49;9.80;99.90
54846;DHT22;53889;50.084;8.646;2023-11-21T07:47:15;9.90;99.90
54846;DHT22;53889;50.084;8.646;2023-11-21T07:49:42;9.90;99.90
54846;DHT22;53889;50.084;8.646;2023-11-21T07:52:11;10.00;99.90
54846;DHT22;53889;50.084;8.646;2023-11-21T07:54:38;10.10;99.90
54846;DHT22;53889;50.084;8.646;2023-11-21T07:57:05;10.10;99.90
54846;DHT22;53889;50.084;8.646;2023-11-21T07:59:32;10.10;99.90
54846;DHT22;53889;50.084;8.646;2023-11-21T08:01:58;10.10;99.90
54846;DHT22;53889;50.084;8.646;2023-11-21T08:04:25;10.10;99.90
54846;DHT22;53889;50.084;8.646;2023-11-21T08:06:52;10.00;99.90
54846;DHT22;53889;50.084;8.646;2023-11-21T08:09:20;10.00;99.90
54846;DHT22;53889;50.084;8.646;2023-11-21T08:11:49;10.00;99.90
54846;DHT22;53889;50.084;8.646;2023-11-21T08:14:17;10.00;99.90
54846;DHT22;53889;50.084;8.646;2023-11-21T08:16:44;9.90;99.90
54846;DHT22;53889;50.084;8.646;2023-11-21T08:19:10;9.90;99.90
54846;DHT22;53889;50.084;8.646;2023-11-21T08:21:37;10.00;99.90
54846;DHT22;53889;50.084;8.646;2023-11-21T08:24:06;10.00;99.90
54846;DHT22;53889;50.084;8.646;2023-11-21T08:26:37;10.00;99.90
54846;DHT22;53889;50.084;8.646;2023-11-21T08:29:04;10.00;99.90
54846;DHT22;53889;50.084;8.646;2023-11-21T08:31:32;9.90;99.90
54846;DHT22;53889;50.084;8.646;2023-11-21T08:33:59;9.90;99.90
54846;DHT22;53889;50.084;8.646;2023-11-21T08:36:28;9.90;99.90
54846;DHT22;53889;50.084;8.646;2023-11-21T08:38:57;9.90;99.90
54846;DHT22;53889;50.084;8.646;2023-11-21T08:41:23;10.00;99.90
54846;DHT22;53889;50.084;8.646;2023-11-21T08:43:51;10.00;99.90
54846;DHT22;53889;50.084;8.646;2023-11-21T08:46:19;9.90;99.90
54846;DHT22;53889;50.084;8.646;2023-11-21T08:48:46;9.90;99.90
54846;DHT22;53889;50.084;8.646;2023-11-21T08:51:12;9.90;99.90
54846;DHT22;53889;50.084;8.646;2023-11-21T08:53:39;9.70;99.90
54846;DHT22;53889;50.084;8.646;2023-11-21T08:56:07;9.90;99.90
54846;DHT22;53889;50.084;8.646;2023-11-21T08:58:34;10.00;99.90
54846;DHT22;53889;50.084;8.646;2023-11-21T09:01:04;10.00;99.90
54846;DHT22;53889;50.084;8.646;2023-11-21T09:03:31;10.00;99.90
54846;DHT22;53889;50.084;8.646;2023-11-21T09:05:59;10.00;99.90
54846;DHT22;53889;50.084;8.646;2023-11-21T09:08:26;10.10;99.90
54846;DHT22;53889;50.084;8.646;2023-11-21T09:10:54;10.20;99.90
54846;DHT22;53889;50.084;8.646;2023-11-21T09:13:21;10.20;99.90
54846;DHT22;53889;50.084;8.646;2023-11-21T09:15:50;10.20;99.90
54846;DHT22;53889;50.084;8.646;2023-11-21T09:18:18;10.30;99.90
54846;DHT22;53889;50.084;8.646;2023-11-21T09:20:44;10.40;99.90
54846;DHT22;53889;50.084;8.646;2023-11-21T09:23:11;10.40;99.90
54846;DHT22;53889;50.084;8.646;2023-11-21T09:25:38;10.40;99.90
54846;DHT22;53889;50.084;8.646;2023-11-21T09:28:05;10.60;99.90
54846;DHT22;53889;50.084;8.646;2023-11-21T09:30:33;10.60;99.90
54846;DHT22;53889;50.084;8.646;2023-11-21T09:33:00;10.70;99.90
54846;DHT22;53889;50.084;8.646;2023-11-21T09:35:28;10.80;99.90
54846;DHT22;53889;50.084;8.646;2023-11-21T09:37:55;10.80;99.90
54846;DHT22;53889;50.084;8.646;2023-11-21T09:40:22;11.00;99.90
54846;DHT22;53889;50.084;8.646;2023-11-21T09:42:54;11.10;99.90
54846;DHT22;53889;50.084;8.646;2023-11-21T09:45:25;11.30;99.90
54846;DHT22;53889;50.084;8.646;2023-11-21T09:47:52;11.40;99.90
54846;DHT22;53889;50.084;8.646;2023-11-21T09:50:21;11.40;99.90
54846;DHT22;53889;50.084;8.646;2023-11-21T09:52:57;12.00;99.90
54846;DHT22;53889;50.084;8.646;2023-11-21T09:55:27;11.30;99.90
54846;DHT22;53889;50.084;8.646;2023-11-21T09:57:56;11.20;99.90
54846;DHT22;53889;50.084;8.646;2023-11-21T10:00:23;11.10;99.90
54846;DHT22;53889;50.084;8.646;2023-11-21T10:02:51;10.90;99.90
54846;DHT22;53889;50.084;8.646;2023-11-21T10:05:18;10.90;99.90
54846;DHT22;53889;50.084;8.646;2023-11-21T10:07:50;10.80;99.90
54846;DHT22;53889;50.084;8.646;2023-11-21T10:10:19;11.30;99.90
54846;DHT22;53889;50.084;8.646;2023-11-21T10:12:49;12.30;99.90
54846;DHT22;53889;50.084;8.646;2023-11-21T10:15:21;13.80;99.90
54846;DHT22;53889;50.084;8.646;2023-11-21T10:17:49;15.30;99.90
54846;DHT22;53889;50.084;8.646;2023-11-21T10:20:19;16.60;99.90
54846;DHT22;53889;50.084;8.646;2023-11-21T10:22:45;17.50;98.20
54846;DHT22;53889;50.084;8.646;2023-11-21T10:25:14;18.30;96.60
54846;DHT22;53889;50.084;8.646;2023-11-21T10:27:41;18.70;94.80
54846;DHT22;53889;50.084;8.646;2023-11-21T10:30:09;18.80;93.60
54846;DHT22;53889;50.084;8.646;2023-11-21T10:32:37;18.70;93.60
54846;DHT22;53889;50.084;8.646;2023-11-21T10:35:06;18.70;93.60
54846;DHT22;53889;50.084;8.646;2023-11-21T10:37:35;18.80;93.70
54846;DHT22;53889;50.084;8.646;2023-11-21T10:40:05;18.70;93.70
54846;DHT22;53889;50.084;8.646;2023-11-21T10:42:34;19.10;92.50
54846;DHT22;53889;50.084;8.646;2023-11-21T10:45:00;18.90;92.60
54846;DHT22;53889;50.084;8.646;2023-11-21T10:47:30;18.90;92.40
54846;DHT22;53889;50.084;8.646;2023-11-21T10:49:57;18.70;93.10
54846;DHT22;53889;50.084;8.646;2023-11-21T10:52:27;18.20;92.50
54846;DHT22;53889;50.084;8.646;2023-11-21T10:54:53;18.00;93.40
54846;DHT22;53889;50.084;8.646;2023-11-21T10:57:21;18.40;93.50
54846;DHT22;53889;50.084;8.646;2023-11-21T10:59:50;18.40;92.70
54846;DHT22;53889;50.084;8.646;2023-11-21T11:02:23;18.60;92.20
54846;DHT22;53889;50.084;8.646;2023-11-21T11:04:54;18.60;92.30
54846;DHT22;53889;50.084;8.646;2023-11-21T11:07:24;18.90;92.30
54846;DHT22;53889;50.084;8.646;2023-11-21T11:09:52;19.20;91.50
54846;DHT22;53889;50.084;8.646;2023-11-21T11:12:19;19.70;90.50
54846;DHT22;53889;50.084;8.646;2023-11-21T11:14:46;19.80;90.60
54846;DHT22;53889;50.084;8.646;2023-11-21T11:17:16;19.70;90.10
54846;DHT22;53889;50.084;8.646;2023-11-21T11:19:45;18.80;90.20
54846;DHT22;53889;50.084;8.646;2023-11-21T11:22:19;18.60;91.40
54846;DHT22;53889;50.084;8.646;2023-11-21T11:25:08;18.80;91.50
54846;DHT22;53889;50.084;8.646;2023-11-21T11:27:44;19.10;91.00
54846;DHT22;53889;50.084;8.646;2023-11-21T11:30:19;18.80;90.60
54846;DHT22;53889;50.084;8.646;2023-11-21T11:32:58;17.90;90.90
54846;DHT22;53889;50.084;8.646;2023-11-21T11:35:33;17.20;92.20
54846;DHT22;53889;50.084;8.646;2023-11-21T11:38:01;16.60;92.90
54846;DHT22;53889;50.084;8.646;2023-11-21T11:40:39;16.10;94.00
54846;DHT22;53889;50.084;8.646;2023-11-21T11:43:06;15.70;94.30
54846;DHT22;53889;50.084;8.646;2023-11-21T11:45:34;15.10;95.10
54846;DHT22;53889;50.084;8.646;2023-11-21T11:48:05;15.20;96.00
54846;DHT22;53889;50.084;8.646;2023-11-21T11:50:31;15.10;96.10
54846;DHT22;53889;50.084;8.646;2023-11-21T11:53:13;14.70;96.40
54846;DHT22;53889;50.084;8.646;2023-11-21T11:55:40;14.30;97.20
54846;DHT22;53889;50.084;8.646;2023-11-21T11:58:07;14.20;97.80
54846;DHT22;53889;50.084;8.646;2023-11-21T12:00:35;14.00;98.40
54846;DHT22;53889;50.084;8.646;2023-11-21T12:03:06;11.80;98.30
54846;DHT22;53889;50.084;8.646;2023-11-21T12:05:34;13.90;99.10
54846;DHT22;53889;50.084;8.646;2023-11-21T12:08:05;13.90;99.20
54846;DHT22;53889;50.084;8.646;2023-11-21T12:10:33;13.90;99.40
54846;DHT22;53889;50.084;8.646;2023-11-21T12:13:01;13.70;98.50
54846;DHT22;53889;50.084;8.646;2023-11-21T12:15:28;13.60;99.00
54846;DHT22;53889;50.084;8.646;2023-11-21T12:17:57;13.70;99.30
54846;DHT22;53889;50.084;8.646;2023-11-21T12:20:26;13.50;99.00
54846;DHT22;53889;50.084;8.646;2023-11-21T12:22:55;13.50;99.20
54846;DHT22;53889;50.084;8.646;2023-11-21T12:25:23;13.50;99.40
54846;DHT22;53889;50.084;8.646;2023-11-21T12:27:51;13.50;99.50
54846;DHT22;53889;50.084;8.646;2023-11-21T12:30:19;13.50;99.70
54846;DHT22;53889;50.084;8.646;2023-11-21T12:32:49;13.30;99.70
54846;DHT22;53889;50.084;8.646;2023-11-21T12:37:47;13.10;99.90
54846;DHT22;53889;50.084;8.646;2023-11-21T12:40:15;13.00;99.90
54846;DHT22;53889;50.084;8.646;2023-11-21T12:42:44;12.90;99.90
54846;DHT22;53889;50.084;8.646;2023-11-21T12:45:20;12.70;99.90
54846;DHT22;53889;50.084;8.646;2023-11-21T12:47:48;12.70;99.90
54846;DHT22;53889;50.084;8.646;2023-11-21T12:50:18;12.70;99.90
54846;DHT22;53889;50.084;8.646;2023-11-21T12:52:51;12.80;99.90
54846;DHT22;53889;50.084;8.646;2023-11-21T12:55:20;12.90;99.90
54846;DHT22;53889;50.084;8.646;2023-11-21T12:57:49;12.90;99.90
54846;DHT22;53889;50.084;8.646;2023-11-21T13:00:19;13.90;99.90
54846;DHT22;53889;50.084;8.646;2023-11-21T13:02:54;12.60;99.90
54846;DHT22;53889;50.084;8.646;2023-11-21T13:05:27;12.50;99.90
54846;DHT22;53889;50.084;8.646;2023-11-21T13:07:57;12.70;99.90
54846;DHT22;53889;50.084;8.646;2023-11-21T13:10:26;12.70;99.90
54846;DHT22;53889;50.084;8.646;2023-11-21T13:12:57;12.60;99.90
54846;DHT22;53889;50.084;8.646;2023-11-21T13:15:25;12.60;99.90
54846;DHT22;53889;50.084;8.646;2023-11-21T13:17:53;12.60;99.90
54846;DHT22;53889;50.084;8.646;2023-11-21T13:22:51;12.70;99.90
54846;DHT22;53889;50.084;8.646;2023-11-21T13:25:21;12.60;99.90
54846;DHT22;53889;50.084;8.646;2023-11-21T13:27:47;12.70;99.90
54846;DHT22;53889;50.084;8.646;2023-11-21T13:30:16;12.80;99.90
54846;DHT22;53889;50.084;8.646;2023-11-21T13:32:43;12.90;99.90
54846;DHT22;53889;50.084;8.646;2023-11-21T13:35:12;12.90;99.90
54846;DHT22;53889;50.084;8.646;2023-11-21T13:37:50;12.90;99.90
54846;DHT22;53889;50.084;8.646;2023-11-21T13:40:22;12.90;99.90
54846;DHT22;53889;50.084;8.646;2023-11-21T13:42:53;12.90;99.90
54846;DHT22;53889;50.084;8.646;2023-11-21T13:45:21;13.00;99.90
54846;DHT22;53889;50.084;8.646;2023-11-21T13:47:49;13.00;99.90
54846;DHT22;53889;50.084;8.646;2023-11-21T13:50:18;12.90;99.90
54846;DHT22;53889;50.084;8.646;2023-11-21T13:52:49;12.90;99.90
54846;DHT22;53889;50.084;8.646;2023-11-21T13:55:18;12.80;99.90
54846;DHT22;53889;50.084;8.646;2023-11-21T13:57:46;12.80;99.90
54846;DHT22;53889;50.084;8.646;2023-11-21T14:00:16;12.80;99.90
54846;DHT22;53889;50.084;8.646;2023-11-21T14:02:57;12.70;99.90
54846;DHT22;53889;50.084;8.646;2023-11-21T14:05:26;12.70;99.90
54846;DHT22;53889;50.084;8.646;2023-11-21T14:07:55;12.70;99.90
54846;DHT22;53889;50.084;8.646;2023-11-21T14:10:28;12.60;99.90
54846;DHT22;53889;50.084;8.646;2023-11-21T14:13:04;12.50;99.90
54846;DHT22;53889;50.084;8.646;2023-11-21T14:15:31;12.40;99.90
54846;DHT22;53889;50.084;8.646;2023-11-21T14:17:59;12.20;99.90
54846;DHT22;53889;50.084;8.646;2023-11-21T14:20:28;14.90;99.90
54846;DHT22;53889;50.084;8.646;2023-11-21T14:22:55;12.10;99.90
54846;DHT22;53889;50.084;8.646;2023-11-21T14:25:22;12.00;99.90
54846;DHT22;53889;50.084;8.646;2023-11-21T14:27:49;12.00;99.90
54846;DHT22;53889;50.084;8.646;2023-11-21T14:30:18;11.90;99.90
54846;DHT22;53889;50.084;8.646;2023-11-21T14:35:15;11.90;99.90
54846;DHT22;53889;50.084;8.646;2023-11-21T14:37:42;12.10;99.90
54846;DHT22;53889;50.084;8.646;2023-11-21T14:40:10;12.30;99.90
54846;DHT22;53889;50.084;8.646;2023-11-21T14:42:37;12.30;99.90
54846;DHT22;53889;50.084;8.646;2023-11-21T14:45:06;12.30;99.90
54846;DHT22;53889;50.084;8.646;2023-11-21T14:47:35;12.20;99.90
54846;DHT22;53889;50.084;8.646;2023-11-21T14:50:04;12.10;99.90
54846;DHT22;53889;50.084;8.646;2023-11-21T14:55:24;11.90;99.90
54846;DHT22;53889;50.084;8.646;2023-11-21T14:57:57;12.50;99.90
54846;DHT22;53889;50.084;8.646;2023-11-21T15:00:28;11.70;99.90
54846;DHT22;53889;50.084;8.646;2023-11-21T15:03:07;11.70;99.90
54846;DHT22;53889;50.084;8.646;2023-11-21T15:05:35;11.60;99.90
54846;DHT22;53889;50.084;8.646;2023-11-21T15:10:44;11.50;99.90
54846;DHT22;53889;50.084;8.646;2023-11-21T15:13:12;11.50;99.90
54846;DHT22;53889;50.084;8.646;2023-11-21T15:15:40;11.40;99.90
54846;DHT22;53889;50.084;8.646;2023-11-21T15:18:08;11.30;99.90
54846;DHT22;53889;50.084;8.646;2023-11-21T15:20:37;11.20;99.90
54846;DHT22;53889;50.084;8.646;2023-11-21T15:23:04;11.10;99.90
54846;DHT22;53889;50.084;8.646;2023-11-21T15:25:31;11.20;99.90
54846;DHT22;53889;50.084;8.646;2023-11-21T15:27:59;11.10;99.90
54846;DHT22;53889;50.084;8.646;2023-11-21T15:32:52;11.20;99.90
54846;DHT22;53889;50.084;8.646;2023-11-21T15:37:48;11.20;99.90
54846;DHT22;53889;50.084;8.646;2023-11-21T15:42:42;11.20;99.90
54846;DHT22;53889;50.084;8.646;2023-11-21T15:45:10;11.10;99.90
54846;DHT22;53889;50.084;8.646;2023-11-21T15:47:37;11.00;99.90
54846;DHT22;53889;50.084;8.646;2023-11-21T15:50:04;11.10;99.90
54846;DHT22;53889;50.084;8.646;2023-11-21T15:52:35;11.10;99.90
54846;DHT22;53889;50.084;8.646;2023-11-21T15:55:03;10.80;99.90
54846;DHT22;53889;50.084;8.646;2023-11-21T15:57:31;11.00;99.90
54846;DHT22;53889;50.084;8.646;2023-11-21T16:02:25;11.10;99.90
54846;DHT22;53889;50.084;8.646;2023-11-21T16:04:52;11.20;99.90
54846;DHT22;53889;50.084;8.646;2023-11-21T16:07:18;11.10;99.90
54846;DHT22;53889;50.084;8.646;2023-11-21T16:09:46;11.20;99.90
54846;DHT22;53889;50.084;8.646;2023-11-21T16:12:14;11.20;99.90
54846;DHT22;53889;50.084;8.646;2023-11-21T16:14:41;11.20;99.90